Time;durP1;ratioP1;P1;durP2;ratioP2;P2;SDS_P1;SDS_P2;PMS_P1;PMS_P2;Temp;Humidity;BMP_temperature;BMP_pressure;BME280_temperature;BME280_humidity;BME280_pressure;Samples;Min_cycle;Max_cycle;Signal;HPM_P1;HPM_P2
2023/05/28 00:01:03;;;;;;;7.47;4.53;;;;;;;;;;6322939;28;20240;-59
2023/05/28 00:04:04;;;;;;;8.90;4.57;;;;;;;;;;6347387;27;20189;-59
2023/05/28 00:07:06;;;;;;;9.00;4.60;;;;;;;;;;6328118;27;20236;-59
2023/05/28 00:10:08;;;;;;;7.20;5.03;;;;;;;;;;6334990;28;20214;-60
2023/05/28 00:13:09;;;;;;;7.13;5.27;;;;;;;;;;6333823;28;20214;-59
2023/05/28 00:16:12;;;;;;;8.73;4.60;;;;;;;;;;6343988;27;20183;-59
2023/05/28 00:19:14;;;;;;;9.70;4.80;;;;;;;;;;6335504;27;20184;-59
2023/05/28 00:22:15;;;;;;;7.43;4.07;;;;;;;;;;6338563;27;20191;-60
2023/05/28 00:25:16;;;;;;;7.37;4.80;;;;;;;;;;6328497;27;20199;-59
2023/05/28 00:28:17;;;;;;;10.67;4.80;;;;;;;;;;6355354;27;20250;-59
2023/05/28 00:31:18;;;;;;;9.60;4.87;;;;;;;;;;6328992;27;20209;-59
2023/05/28 00:34:19;;;;;;;7.30;4.40;;;;;;;;;;6332552;27;20278;-59
2023/05/28 00:37:20;;;;;;;7.70;4.63;;;;;;;;;;6338491;27;20184;-59
2023/05/28 00:40:21;;;;;;;7.10;4.90;;;;;;;;;;6334877;27;20221;-59
2023/05/28 00:43:22;;;;;;;7.57;4.60;;;;;;;;;;6358852;27;20197;-59
2023/05/28 00:46:24;;;;;;;11.00;4.83;;;;;;;;;;6335576;27;20316;-59
2023/05/28 00:49:25;;;;;;;9.63;4.27;;;;;;;;;;6327029;27;20199;-59
2023/05/28 00:52:26;;;;;;;7.53;4.47;;;;;;;;;;6347147;27;20195;-59
2023/05/28 00:55:27;;;;;;;7.97;4.57;;;;;;;;;;6331624;27;20198;-59
2023/05/28 00:58:29;;;;;;;9.27;4.77;;;;;;;;;;6329657;27;20188;-59
2023/05/28 01:01:30;;;;;;;7.60;4.43;;;;;;;;;;6336977;27;20206;-59
2023/05/28 01:04:31;;;;;;;6.70;5.70;;;;;;;;;;6346940;27;20209;-59
2023/05/28 01:07:32;;;;;;;7.03;4.30;;;;;;;;;;6321420;27;20187;-59
2023/05/28 01:10:34;;;;;;;10.40;4.57;;;;;;;;;;6357584;27;20185;-59
2023/05/28 01:13:36;;;;;;;8.17;4.67;;;;;;;;;;6334783;27;20199;-59
2023/05/28 01:16:37;;;;;;;7.73;5.10;;;;;;;;;;6330173;28;20192;-59
2023/05/28 01:19:39;;;;;;;9.47;5.20;;;;;;;;;;6322584;27;20195;-59
2023/05/28 01:22:41;;;;;;;8.73;4.70;;;;;;;;;;6333876;27;20219;-59
2023/05/28 01:25:44;;;;;;;6.63;4.43;;;;;;;;;;6336186;27;20230;-59
2023/05/28 01:28:46;;;;;;;7.30;4.73;;;;;;;;;;6321941;27;20235;-59
2023/05/28 01:31:47;;;;;;;8.80;5.27;;;;;;;;;;6327944;27;20191;-59
2023/05/28 01:34:48;;;;;;;8.83;4.97;;;;;;;;;;6323783;28;20196;-59
2023/05/28 01:37:51;;;;;;;8.97;5.13;;;;;;;;;;6328282;27;20186;-59
2023/05/28 01:40:54;;;;;;;7.60;4.27;;;;;;;;;;6347505;27;20218;-60
2023/05/28 01:43:55;;;;;;;7.67;4.30;;;;;;;;;;6344089;27;20216;-59
2023/05/28 01:46:57;;;;;;;9.97;4.47;;;;;;;;;;6337938;27;20261;-59
2023/05/28 01:49:58;;;;;;;9.93;4.30;;;;;;;;;;6317718;27;20193;-59
2023/05/28 01:52:59;;;;;;;7.67;5.33;;;;;;;;;;6317592;28;20280;-59
2023/05/28 01:56:01;;;;;;;8.50;4.47;;;;;;;;;;6330417;27;20202;-59
2023/05/28 01:59:03;;;;;;;8.57;4.60;;;;;;;;;;6355799;27;20198;-59
2023/05/28 02:02:05;;;;;;;9.00;5.30;;;;;;;;;;6347553;28;20299;-59
2023/05/28 02:05:06;;;;;;;6.37;4.40;;;;;;;;;;6337437;27;20215;-59
2023/05/28 02:08:07;;;;;;;10.50;5.27;;;;;;;;;;6328507;27;20270;-59
2023/05/28 02:11:08;;;;;;;9.47;5.03;;;;;;;;;;6336134;27;20277;-59
2023/05/28 02:14:14;;;;;;;10.63;4.57;;;;;;;;;;6348942;27;20218;-59
2023/05/28 02:17:17;;;;;;;10.30;5.30;;;;;;;;;;6335622;28;20246;-59
2023/05/28 02:20:18;;;;;;;7.40;4.60;;;;;;;;;;6343957;28;20192;-59
2023/05/28 02:23:19;;;;;;;10.90;5.60;;;;;;;;;;6321345;28;20212;-59
2023/05/28 02:26:20;;;;;;;9.67;5.23;;;;;;;;;;6346039;27;20189;-59
2023/05/28 02:29:21;;;;;;;7.83;5.27;;;;;;;;;;6345342;27;20242;-59
2023/05/28 02:32:22;;;;;;;7.97;4.77;;;;;;;;;;6336009;27;20184;-59
2023/05/28 02:35:24;;;;;;;8.03;4.70;;;;;;;;;;6325899;27;20187;-59
2023/05/28 02:38:25;;;;;;;8.70;4.47;;;;;;;;;;6334959;27;20226;-59
2023/05/28 02:41:26;;;;;;;10.50;4.83;;;;;;;;;;6322925;28;20337;-59
2023/05/28 02:44:27;;;;;;;7.77;4.97;;;;;;;;;;6330540;27;20218;-59
2023/05/28 02:47:28;;;;;;;8.70;5.13;;;;;;;;;;6338969;27;20187;-59
2023/05/28 02:50:29;;;;;;;8.33;5.00;;;;;;;;;;6321655;27;20225;-59
2023/05/28 02:53:31;;;;;;;8.20;5.03;;;;;;;;;;6345675;27;20195;-59
2023/05/28 02:56:32;;;;;;;8.47;5.37;;;;;;;;;;6329149;27;20196;-59
2023/05/28 02:59:33;;;;;;;8.30;4.90;;;;;;;;;;6329122;27;20206;-59
2023/05/28 03:02:34;;;;;;;7.07;4.73;;;;;;;;;;6341651;27;20217;-59
2023/05/28 03:05:35;;;;;;;10.43;5.60;;;;;;;;;;6341281;27;20191;-59
2023/05/28 03:08:36;;;;;;;6.27;4.90;;;;;;;;;;6343579;27;20238;-59
2023/05/28 03:11:37;;;;;;;11.67;5.23;;;;;;;;;;6346132;27;20240;-59
2023/05/28 03:14:38;;;;;;;7.37;5.20;;;;;;;;;;6331628;27;20192;-59
2023/05/28 03:17:40;;;;;;;7.67;5.43;;;;;;;;;;6328694;27;20191;-59
2023/05/28 03:20:41;;;;;;;7.57;5.40;;;;;;;;;;6321090;27;20188;-59
2023/05/28 03:23:42;;;;;;;7.33;4.80;;;;;;;;;;6323932;28;20435;-59
2023/05/28 03:26:43;;;;;;;8.60;5.13;;;;;;;;;;6322670;28;20196;-59
2023/05/28 03:29:44;;;;;;;8.70;5.00;;;;;;;;;;6345240;27;20260;-59
2023/05/28 03:32:45;;;;;;;10.13;5.80;;;;;;;;;;6344766;28;20193;-59
2023/05/28 03:35:46;;;;;;;9.97;4.73;;;;;;;;;;6323622;28;20200;-59
2023/05/28 03:38:47;;;;;;;11.73;5.20;;;;;;;;;;6330176;28;20211;-59
2023/05/28 03:41:49;;;;;;;8.83;5.17;;;;;;;;;;6334747;27;20199;-59
2023/05/28 03:44:50;;;;;;;11.93;5.00;;;;;;;;;;6324669;28;20225;-59
2023/05/28 03:47:51;;;;;;;9.43;5.37;;;;;;;;;;6333638;28;20295;-59
2023/05/28 03:50:52;;;;;;;12.00;5.60;;;;;;;;;;6318671;28;20188;-59
2023/05/28 03:53:53;;;;;;;9.20;5.70;;;;;;;;;;6324191;28;20195;-59
2023/05/28 03:56:54;;;;;;;6.77;4.93;;;;;;;;;;6333484;28;20195;-59
2023/05/28 03:59:56;;;;;;;8.97;5.53;;;;;;;;;;6324152;27;20216;-59
2023/05/28 04:02:57;;;;;;;8.00;4.77;;;;;;;;;;6329039;28;20223;-59
2023/05/28 04:06:00;;;;;;;11.00;4.83;;;;;;;;;;6324317;28;20237;-59
2023/05/28 04:09:01;;;;;;;7.63;4.97;;;;;;;;;;6314983;28;20241;-59
2023/05/28 04:12:03;;;;;;;6.67;4.53;;;;;;;;;;6317120;28;20196;-59
2023/05/28 04:15:04;;;;;;;9.23;5.40;;;;;;;;;;6318191;27;20192;-59
2023/05/28 04:18:05;;;;;;;9.87;4.80;;;;;;;;;;6348715;27;20187;-59
2023/05/28 04:21:07;;;;;;;7.27;4.93;;;;;;;;;;6324918;28;20192;-59
2023/05/28 04:24:08;;;;;;;10.27;5.27;;;;;;;;;;6325680;28;20299;-59
2023/05/28 04:27:09;;;;;;;9.10;5.30;;;;;;;;;;6341578;27;20175;-59
2023/05/28 04:30:10;;;;;;;9.60;5.67;;;;;;;;;;6312290;28;20235;-59
2023/05/28 04:33:16;;;;;;;9.70;5.10;;;;;;;;;;6312688;28;20199;-59
2023/05/28 04:36:17;;;;;;;8.43;5.27;;;;;;;;;;6325751;28;20204;-59
2023/05/28 04:39:18;;;;;;;9.43;5.40;;;;;;;;;;6334135;27;20222;-59
2023/05/28 04:42:19;;;;;;;9.47;5.43;;;;;;;;;;6323354;28;20193;-59
2023/05/28 04:45:20;;;;;;;10.43;5.23;;;;;;;;;;6308117;28;20192;-60
2023/05/28 04:48:22;;;;;;;7.93;5.20;;;;;;;;;;6338295;27;20201;-62
2023/05/28 04:51:23;;;;;;;8.77;5.00;;;;;;;;;;6307612;28;20287;-62
2023/05/28 04:54:26;;;;;;;10.70;5.37;;;;;;;;;;6310136;28;20253;-61
2023/05/28 04:57:27;;;;;;;8.17;5.20;;;;;;;;;;6322408;28;20245;-61
2023/05/28 05:00:30;;;;;;;8.77;5.07;;;;;;;;;;6336015;27;20338;-61
2023/05/28 05:03:31;;;;;;;7.07;4.90;;;;;;;;;;6320726;28;20217;-60
2023/05/28 05:06:33;;;;;;;7.80;5.33;;;;;;;;;;6319454;28;20192;-60
2023/05/28 05:09:34;;;;;;;7.80;4.87;;;;;;;;;;6331511;28;20274;-60
2023/05/28 05:12:35;;;;;;;9.37;5.67;;;;;;;;;;6324272;28;20197;-60
2023/05/28 05:15:36;;;;;;;6.27;4.73;;;;;;;;;;6320100;28;20218;-60
2023/05/28 05:18:37;;;;;;;7.23;5.00;;;;;;;;;;6318468;28;20184;-60
2023/05/28 05:21:38;;;;;;;6.50;5.13;;;;;;;;;;6323255;27;20244;-60
2023/05/28 05:24:39;;;;;;;14.13;5.07;;;;;;;;;;6312017;28;20236;-60
2023/05/28 05:27:40;;;;;;;6.73;5.13;;;;;;;;;;6324134;28;20197;-60
2023/05/28 05:30:41;;;;;;;12.30;5.93;;;;;;;;;;6342507;28;20234;-60
2023/05/28 05:33:43;;;;;;;7.27;5.23;;;;;;;;;;6321035;27;20198;-60
2023/05/28 05:36:44;;;;;;;9.40;5.40;;;;;;;;;;6341138;27;20191;-60
2023/05/28 05:39:46;;;;;;;8.03;5.43;;;;;;;;;;6312637;28;20209;-60
2023/05/28 05:42:47;;;;;;;5.93;5.03;;;;;;;;;;6309571;28;20250;-60
2023/05/28 05:45:48;;;;;;;8.23;5.23;;;;;;;;;;6319046;27;20199;-60
2023/05/28 05:48:49;;;;;;;8.93;5.53;;;;;;;;;;6313878;28;20204;-60
2023/05/28 05:51:50;;;;;;;10.97;5.50;;;;;;;;;;6311993;28;20194;-60
2023/05/28 05:54:51;;;;;;;8.77;5.20;;;13.60;67.40;;;;;;6321046;28;20230;-60
2023/05/28 05:57:52;;;;;;;7.93;5.17;;;;;;;;;;6310435;28;20208;-60
2023/05/28 06:00:53;;;;;;;10.87;5.43;;;;;;;;;;6325211;28;20227;-61
2023/05/28 06:03:54;;;;;;;8.87;5.73;;;;;;;;;;6317457;28;20219;-61
2023/05/28 06:06:55;;;;;;;11.00;5.57;;;;;;;;;;6325314;28;20196;-59
2023/05/28 06:09:56;;;;;;;10.80;5.73;;;;;;;;;;6322964;28;20199;-59
2023/05/28 06:13:01;;;;;;;9.13;4.93;;;;;;;;;;6320338;28;20200;-60
2023/05/28 06:16:03;;;;;;;9.63;5.23;;;;;;;;;;6312304;28;20197;-60
2023/05/28 06:19:04;;;;;;;7.73;4.87;;;;;;;;;;6325989;28;20185;-60
2023/05/28 06:22:05;;;;;;;8.60;5.17;;;;;;;;;;6308870;28;20204;-60
2023/05/28 06:25:08;;;;;;;10.37;5.33;;;;;;;;;;6314654;28;20312;-60
2023/05/28 06:28:09;;;;;;;10.37;5.70;;;;;;;;;;6338153;28;20256;-60
2023/05/28 06:31:11;;;;;;;11.37;5.17;;;;;;;;;;6326797;28;20191;-60
2023/05/28 06:34:12;;;;;;;8.57;5.30;;;;;;;;;;6326326;27;20183;-60
2023/05/28 06:37:12;;;;;;;9.50;5.73;;;13.00;74.30;;;;;;6316160;28;20232;-60
2023/05/28 06:40:13;;;;;;;6.43;4.97;;;13.90;74.00;;;;;;6316888;28;20253;-59
2023/05/28 06:43:14;;;;;;;7.57;4.60;;;13.90;74.40;;;;;;6297706;27;20218;-59
2023/05/28 06:46:15;;;;;;;9.13;5.43;;;13.90;74.00;;;;;;6341763;27;20192;-59
2023/05/28 06:49:16;;;;;;;8.33;5.20;;;;;;;;;;6318950;28;20198;-59
2023/05/28 06:52:19;;;;;;;11.67;5.20;;;;;;;;;;6334212;27;20208;-59
2023/05/28 06:55:20;;;;;;;7.73;5.00;;;;;;;;;;6345022;28;20183;-59
2023/05/28 06:58:21;;;;;;;10.70;5.63;;;;;;;;;;6330345;28;20187;-59
2023/05/28 07:01:22;;;;;;;10.10;5.37;;;;;;;;;;6343868;28;20185;-59
2023/05/28 07:04:23;;;;;;;11.13;5.07;;;;;;;;;;6352281;28;20207;-59
2023/05/28 07:07:24;;;;;;;7.93;4.90;;;;;;;;;;6328761;27;20236;-59
2023/05/28 07:10:25;;;;;;;8.40;4.93;;;;;;;;;;6333845;27;20190;-59
2023/05/28 07:13:26;;;;;;;8.57;4.57;;;;;;;;;;6332531;28;20232;-59
2023/05/28 07:16:28;;;;;;;6.23;4.23;;;;;;;;;;6348110;27;20274;-59
2023/05/28 07:19:30;;;;;;;6.50;4.67;;;;;;;;;;6350716;27;20183;-59
2023/05/28 07:22:32;;;;;;;7.10;4.53;;;;;;;;;;6341464;27;20213;-59
2023/05/28 07:25:33;;;;;;;6.97;4.60;;;;;;;;;;6340605;27;20186;-59
2023/05/28 07:28:34;;;;;;;10.60;4.90;;;;;;;;;;6331232;27;20238;-59
2023/05/28 07:31:38;;;;;;;8.87;4.43;;;;;;;;;;6322934;27;20237;-59
2023/05/28 07:34:40;;;;;;;7.83;4.23;;;;;;;;;;6320083;28;20203;-59
2023/05/28 07:37:41;;;;;;;6.70;4.20;;;;;;;;;;6331583;27;20200;-59
2023/05/28 07:40:42;;;;;;;5.80;3.97;;;;;;;;;;6328133;27;20184;-59
2023/05/28 07:43:44;;;;;;;6.83;4.40;;;;;;;;;;6334903;27;20207;-60
2023/05/28 07:46:45;;;;;;;10.10;4.33;;;;;;;;;;6323449;27;20180;-59
2023/05/28 07:49:47;;;;;;;7.87;3.83;;;;;;;;;;6344650;27;20187;-59
2023/05/28 07:52:48;;;;;;;9.43;4.73;;;;;;;;;;6330435;28;20204;-59
2023/05/28 07:55:49;;;;;;;4.93;4.00;;;;;;;;;;6344436;27;20268;-59
2023/05/28 07:58:51;;;;;;;6.90;3.90;;;;;;;;;;6332584;28;20188;-59
2023/05/28 08:01:52;;;;;;;6.63;4.33;;;;;;;;;;6333301;27;20184;-59
2023/05/28 08:04:53;;;;;;;6.13;4.27;;;;;;;;;;6351338;27;20244;-59
2023/05/28 08:07:54;;;;;;;6.50;4.47;;;;;;;;;;6331742;27;20239;-59
2023/05/28 08:10:55;;;;;;;8.10;4.80;;;;;;;;;;6345976;27;20228;-59
2023/05/28 08:13:57;;;;;;;5.63;4.03;;;;;;;;;;6324781;27;20224;-59
2023/05/28 08:16:58;;;;;;;7.97;4.50;;;;;;;;;;6327378;27;20207;-59
2023/05/28 08:20:00;;;;;;;8.80;4.57;;;;;;;;;;6331779;27;20195;-59
2023/05/28 08:23:02;;;;;;;7.20;4.17;;;;;;;;;;6335689;27;20210;-59
2023/05/28 08:26:03;;;;;;;6.17;3.97;;;;;;;;;;6337473;28;20195;-59
2023/05/28 08:29:04;;;;;;;9.33;4.70;;;;;;;;;;6337257;27;20235;-59
2023/05/28 08:32:06;;;;;;;7.43;4.80;;;;;;;;;;6318190;28;20196;-59
2023/05/28 08:35:07;;;;;;;7.63;4.40;;;;;;;;;;6364538;27;20271;-59
2023/05/28 08:38:08;;;;;;;9.50;4.40;;;;;;;;;;6329302;28;20184;-59
2023/05/28 08:41:10;;;;;;;8.67;4.53;;;;;;;;;;6352422;27;20186;-59
2023/05/28 08:44:11;;;;;;;6.73;4.53;;;;;;;;;;6347186;27;20223;-59
2023/05/28 08:47:13;;;;;;;7.10;4.43;;;;;;;;;;6324978;27;20179;-59
2023/05/28 08:50:16;;;;;;;7.47;4.47;;;;;;;;;;6334837;27;20192;-59
2023/05/28 08:53:20;;;;;;;8.70;5.20;;;;;;;;;;6363329;27;20188;-59
2023/05/28 08:56:21;;;;;;;8.50;5.17;;;;;;;;;;6344078;27;20275;-59
2023/05/28 08:59:24;;;;;;;7.70;4.90;;;;;;;;;;6332374;28;20183;-59
2023/05/28 09:02:26;;;;;;;10.57;5.40;;;;;;;;;;6337480;28;20233;-60
2023/05/28 09:05:26;;;;;;;11.33;5.57;;;14.00;73.80;;;;;;6330292;28;20211;-59
2023/05/28 09:08:27;;;;;;;6.73;4.23;;;17.80;51.50;;;;;;6313700;27;20192;-59
2023/05/28 09:11:28;;;;;;;8.10;4.10;;;18.00;51.60;;;;;;6327588;27;20297;-59
2023/05/28 09:14:28;;;;;;;12.77;5.07;;;18.00;52.30;;;;;;6303190;28;20195;-59
2023/05/28 09:17:36;;;;;;;7.97;4.73;;;18.10;51.80;;;;;;6318200;27;20188;-59
2023/05/28 09:20:37;;;;;;;6.13;4.30;;;18.10;52.10;;;;;;6326084;27;20195;-59
2023/05/28 09:23:45;;;;;;;6.97;4.40;;;18.30;53.30;;;;;;6326703;27;20210;-59
2023/05/28 09:26:47;;;;;;;10.27;4.37;;;18.30;52.30;;;;;;6365437;27;20172;-59
2023/05/28 09:29:48;;;;;;;9.93;4.70;;;;;;;;;;6307710;28;20669;-59
2023/05/28 09:32:57;;;;;;;9.00;5.07;;;;;;;;;;6336144;27;20240;-59
2023/05/28 09:35:59;;;;;;;13.43;5.43;;;;;;;;;;6323994;28;20189;-59
2023/05/28 09:39:07;;;;;;;8.97;4.23;;;;;;;;;;6311798;28;20242;-59
2023/05/28 09:42:11;;;;;;;6.93;5.00;;;;;;;;;;6334190;28;20278;-59
2023/05/28 09:45:21;;;;;;;8.63;4.57;;;;;;;;;;6334451;28;20221;-59
2023/05/28 09:48:22;;;;;;;8.83;4.73;;;;;;;;;;6342515;28;20185;-59
2023/05/28 09:51:28;;;;;;;9.13;5.00;;;;;;;;;;6320919;28;20187;-59
2023/05/28 09:54:33;;;;;;;6.80;4.30;;;;;;;;;;6307079;28;20189;-59
2023/05/28 09:57:36;;;;;;;10.30;5.10;;;;;;;;;;6325492;28;20215;-59
2023/05/28 10:00:44;;;;;;;11.00;5.43;;;;;;;;;;6348351;27;20247;-59
2023/05/28 10:03:47;;;;;;;7.33;4.40;;;;;;;;;;6341445;27;20215;-59
2023/05/28 10:06:48;;;;;;;9.60;5.20;;;;;;;;;;6341051;27;20184;-59
2023/05/28 10:09:51;;;;;;;8.00;4.70;;;;;;;;;;6333997;28;20180;-59
2023/05/28 10:12:53;;;;;;;8.03;4.77;;;;;;;;;;6333598;28;20184;-59
2023/05/28 10:15:54;;;;;;;8.93;4.57;;;;;;;;;;6320700;28;20207;-59
2023/05/28 10:18:56;;;;;;;8.57;4.90;;;18.40;53.40;;;;;;6330990;28;20271;-59
2023/05/28 10:21:57;;;;;;;7.80;4.70;;;19.80;49.40;;;;;;6342115;28;20185;-59
2023/05/28 10:25:00;;;;;;;7.30;5.10;;;19.70;50.30;;;;;;6324098;28;20261;-59
2023/05/28 10:28:05;;;;;;;10.43;6.07;;;19.80;49.50;;;;;;6331642;28;20180;-59
2023/05/28 10:31:07;;;;;;;7.47;4.93;;;19.90;52.10;;;;;;6332504;28;20192;-59
2023/05/28 10:34:17;;;;;;;8.90;4.93;;;20.00;50.50;;;;;;6330351;27;20220;-59
2023/05/28 10:37:23;;;;;;;7.47;5.23;;;20.20;49.30;;;;;;6302519;27;20185;-59
2023/05/28 10:40:24;;;;;;;7.50;4.83;;;20.30;50.50;;;;;;6348664;27;20432;-59
2023/05/28 10:43:42;;;;;;;10.60;5.90;;;20.50;52.40;;;;;;6315310;28;20272;-59
2023/05/28 10:46:43;;;;;;;9.93;4.90;;;20.50;49.10;;;;;;6345526;27;20186;-59
2023/05/28 10:50:00;;;;;;;7.77;4.90;;;20.60;48.10;;;;;;6312962;28;20457;-59
2023/05/28 10:53:05;;;;;;;9.17;5.53;;;20.70;49.60;;;;;;6336588;28;20195;-59
2023/05/28 10:56:08;;;;;;;7.07;5.30;;;20.80;47.50;;;;;;6322062;27;20214;-59
2023/05/28 10:59:14;;;;;;;9.10;4.93;;;21.00;48.40;;;;;;6350524;27;20249;-59
2023/05/28 11:02:21;;;;;;;6.87;4.93;;;21.00;47.80;;;;;;6342109;27;20180;-59
2023/05/28 11:05:25;;;;;;;8.57;5.03;;;21.00;46.70;;;;;;6357838;27;20203;-59
2023/05/28 11:08:26;;;;;;;9.67;4.87;;;21.00;46.70;;;;;;6348611;27;20270;-59
2023/05/28 11:11:27;;;;;;;7.60;5.37;;;21.10;46.70;;;;;;6308973;27;20179;-59
2023/05/28 11:14:38;;;;;;;7.33;4.73;;;21.10;47.80;;;;;;6332795;27;20218;-60
2023/05/28 11:17:43;;;;;;;7.27;5.07;;;21.40;48.30;;;;;;6318788;27;20191;-59
2023/05/28 11:20:44;;;;;;;7.93;4.80;;;21.50;47.10;;;;;;6354911;27;20222;-59
2023/05/28 11:23:59;;;;;;;7.90;5.13;;;21.60;46.80;;;;;;6317823;28;20203;-59
2023/05/28 11:27:00;;;;;;;7.30;4.70;;;21.70;48.60;;;;;;6318426;28;20288;-59
2023/05/28 11:30:06;;;;;;;8.67;4.97;;;21.90;47.00;;;;;;6310612;28;20236;-59
2023/05/28 11:33:07;;;;;;;9.70;5.30;;;22.10;45.90;;;;;;6324572;27;20184;-60
2023/05/28 11:36:08;;;;;;;7.47;5.33;;;22.40;47.50;;;;;;6307125;27;20187;-60
2023/05/28 11:39:10;;;;;;;10.37;4.80;;;22.50;46.30;;;;;;6320674;27;20246;-60
2023/05/28 11:42:11;;;;;;;9.23;4.90;;;22.60;46.10;;;;;;6325799;27;20188;-60
2023/05/28 11:45:12;;;;;;;6.00;4.33;;;22.80;44.70;;;;;;6339700;27;20207;-60
2023/05/28 11:48:13;;;;;;;9.73;5.27;;;;;;;;;;6330932;27;20187;-60
2023/05/28 11:51:14;;;;;;;7.30;4.90;;;;;;;;;;6347901;27;20189;-60
2023/05/28 11:54:15;;;;;;;8.80;4.77;;;;;;;;;;6330620;27;20210;-60
2023/05/28 11:57:22;;;;;;;6.53;4.60;;;;;;;;;;6338741;27;20252;-60
2023/05/28 12:00:33;;;;;;;7.13;4.40;;;;;;;;;;6352245;27;20195;-60
2023/05/28 12:03:34;;;;;;;8.20;5.10;;;;;;;;;;6325514;27;20211;-60
2023/05/28 12:06:51;;;;;;;5.33;4.33;;;;;;;;;;6339542;27;20191;-60
2023/05/28 12:10:01;;;;;;;8.00;4.40;;;;;;;;;;6354485;27;20187;-60
2023/05/28 12:13:02;;;;;;;8.73;5.70;;;29.70;36.40;;;;;;6347066;27;20179;-58
2023/05/28 12:16:10;;;;;;;7.57;4.60;;;31.40;32.10;;;;;;6321406;28;20209;-58
2023/05/28 12:19:14;;;;;;;9.60;4.60;;;32.00;32.20;;;;;;6334280;28;20188;-58
2023/05/28 12:22:16;;;;;;;6.93;4.47;;;32.50;31.00;;;;;;6322650;27;20202;-58
2023/05/28 12:25:17;;;;;;;5.97;4.37;;;;;;;;;;6337359;27;20212;-58
2023/05/28 12:28:22;;;;;;;9.03;4.60;;;33.80;31.70;;;;;;6342704;27;20238;-58
2023/05/28 12:31:28;;;;;;;6.72;4.35;;;34.10;30.10;;;;;;6349949;27;20187;-59
2023/05/28 12:34:29;;;;;;;6.88;4.95;;;34.80;30.60;;;;;;6343530;27;20184;-59
2023/05/28 12:37:30;;;;;;;7.63;4.22;;;35.50;31.00;;;;;;6325758;27;20182;-59
2023/05/28 12:40:31;;;;;;;5.28;4.57;;;;;;;;;;6307378;27;20184;-58
2023/05/28 12:43:31;;;;;;;6.85;4.78;;;37.20;29.60;;;;;;6324148;27;20229;-59
2023/05/28 12:46:32;;;;;;;6.93;4.90;;;37.40;28.20;;;;;;6305779;28;20189;-58
2023/05/28 12:49:33;;;;;;;5.25;4.22;;;37.70;28.30;;;;;;6318867;27;20181;-58
2023/05/28 12:52:34;;;;;;;7.45;5.38;;;37.90;27.40;;;;;;6347611;27;20188;-59
2023/05/28 12:55:35;;;;;;;9.52;5.07;;;;;;;;;;6337654;27;20215;-58
2023/05/28 12:58:36;;;;;;;6.95;4.78;;;38.70;26.00;;;;;;6323267;28;20274;-58
2023/05/28 13:01:36;;;;;;;5.75;4.95;;;38.50;26.20;;;;;;6318213;27;20185;-58
2023/05/28 13:04:37;;;;;;;8.10;4.95;;;;;;;;;;6342196;27;20213;-59
2023/05/28 13:07:38;;;;;;;7.00;4.78;;;39.00;27.60;;;;;;6321610;27;20275;-59
2023/05/28 13:10:39;;;;;;;6.20;4.65;;;39.20;26.20;;;;;;6324119;27;20212;-59
2023/05/28 13:13:39;;;;;;;6.43;4.53;;;38.50;25.80;;;;;;6302327;28;20294;-58
2023/05/28 13:16:40;;;;;;;5.35;4.85;;;38.90;27.80;;;;;;6312604;28;20278;-58
2023/05/28 13:19:41;;;;;;;6.75;4.57;;;39.50;27.20;;;;;;6339080;27;20175;-59
2023/05/28 13:22:42;;;;;;;6.97;5.00;;;;;;;;;;6332696;28;20279;-59
2023/05/28 13:25:43;;;;;;;6.15;4.78;;;39.90;24.30;;;;;;6340463;27;20179;-59
2023/05/28 13:28:44;;;;;;;6.60;5.40;;;;;;;;;;6341977;27;20230;-59
2023/05/28 13:31:45;;;;;;;7.95;4.63;;;;;;;;;;6365433;27;20237;-59
2023/05/28 13:34:45;;;;;;;5.72;5.03;;;39.50;24.50;;;;;;6351910;27;20303;-58
2023/05/28 13:37:47;;;;;;;6.28;4.97;;;;;;;;;;6333291;27;20191;-58
2023/05/28 13:40:47;;;;;;;7.80;4.57;;;38.20;26.50;;;;;;6327776;27;20182;-61
2023/05/28 13:43:49;;;;;;;7.15;4.97;;;;;;;;;;6318452;27;20197;-63
2023/05/28 13:46:50;;;;;;;6.15;4.45;;;;;;;;;;6334632;28;20279;-61
2023/05/28 13:49:51;;;;;;;6.32;4.82;;;;;;;;;;6352097;27;20198;-61
2023/05/28 13:52:52;;;;;;;6.07;5.05;;;39.00;26.50;;;;;;6337859;27;20228;-62
2023/05/28 13:55:52;;;;;;;6.57;4.68;;;35.50;28.80;;;;;;6324189;27;20241;-64
2023/05/28 13:59:00;;;;;;;7.80;4.47;;;34.60;31.20;;;;;;6325746;27;20188;-64
2023/05/28 14:02:01;;;;;;;6.30;3.97;;;33.40;31.50;;;;;;6307666;27;20215;-61
2023/05/28 14:05:02;;;;;;;7.00;4.70;;;;;;;;;;6322634;27;20188;-60
2023/05/28 14:08:03;;;;;;;5.23;4.53;;;;;;;;;;6345232;28;20183;-60
2023/05/28 14:11:04;;;;;;;7.17;4.60;;;;;;;;;;6337619;27;20190;-62
2023/05/28 14:14:05;;;;;;;8.77;5.17;;;;;;;;;;6319282;28;20219;-61
2023/05/28 14:17:06;;;;;;;6.97;5.03;;;32.30;36.10;;;;;;6345760;27;20187;-60
2023/05/28 14:20:08;;;;;;;6.27;4.73;;;31.10;33.70;;;;;;6349519;27;20195;-62
2023/05/28 14:23:08;;;;;;;6.53;4.80;;;30.50;36.70;;;;;;6319237;27;20191;-63
2023/05/28 14:26:09;;;;;;;6.70;4.47;;;30.00;37.70;;;;;;6305347;28;20249;-63
2023/05/28 14:29:12;;;;;;;6.13;4.30;;;;;;;;;;6322929;28;20392;-59
2023/05/28 14:32:13;;;;;;;9.33;4.80;;;30.00;38.20;;;;;;6338986;28;20244;-60
2023/05/28 14:35:14;;;;;;;6.43;4.87;;;30.30;35.50;;;;;;6321080;28;20211;-59
2023/05/28 14:38:14;;;;;;;6.90;4.97;;;30.30;36.20;;;;;;6334883;28;20277;-61
2023/05/28 14:41:15;;;;;;;7.57;5.60;;;30.00;36.70;;;;;;6333105;28;20283;-60
2023/05/28 14:44:16;;;;;;;8.23;5.27;;;29.90;36.40;;;;;;6311033;28;20259;-59
2023/05/28 14:47:16;;;;;;;8.40;4.67;;;29.40;36.80;;;;;;6337012;27;20193;-59
2023/05/28 14:50:17;;;;;;;5.93;4.30;;;29.00;38.20;;;;;;6337466;27;20195;-63
2023/05/28 14:53:18;;;;;;;6.97;5.03;;;;;;;;;;6355500;28;20204;-62
2023/05/28 14:56:19;;;;;;;6.50;4.43;;;28.80;39.60;;;;;;6338900;27;20186;-60
2023/05/28 14:59:20;;;;;;;7.83;4.73;;;;;;;;;;6298239;28;20211;-60
2023/05/28 15:02:21;;;;;;;6.43;4.80;;;;;;;;;;6338925;28;20195;-60
2023/05/28 15:05:22;;;;;;;7.63;5.10;;;;;;;;;;6317127;28;20192;-62
2023/05/28 15:08:23;;;;;;;6.93;4.70;;;;;;;;;;6338973;28;20195;-60
2023/05/28 15:11:25;;;;;;;6.63;5.00;;;;;;;;;;6342391;28;20214;-61
2023/05/28 15:14:30;;;;;;;15.73;12.63;;;;;;;;;;6329911;28;20216;-61
2023/05/28 15:17:31;;;;;;;6.27;5.00;;;28.80;38.40;;;;;;6325847;27;20260;-61
2023/05/28 15:20:31;;;;;;;7.70;4.70;;;27.50;41.90;;;;;;6335357;27;20213;-60
2023/05/28 15:23:33;;;;;;;7.50;5.13;;;27.50;43.00;;;;;;6328133;28;20195;-61
2023/05/28 15:26:33;;;;;;;6.43;4.97;;;27.50;42.60;;;;;;6314126;27;20199;-61
2023/05/28 15:29:35;;;;;;;6.77;4.83;;;27.50;41.40;;;;;;6305350;28;20243;-60
2023/05/28 15:32:37;;;;;;;8.23;4.97;;;27.40;41.30;;;;;;6327182;28;20208;-61
2023/05/28 15:35:38;;;;;;;6.63;4.50;;;27.40;42.00;;;;;;6332627;28;20246;-60
2023/05/28 15:38:39;;;;;;;6.13;4.60;;;27.30;40.40;;;;;;6316555;28;20189;-61
2023/05/28 15:41:42;;;;;;;6.73;4.73;;;27.20;41.50;;;;;;6312358;28;20215;-60
2023/05/28 15:44:43;;;;;;;8.27;4.90;;;27.00;42.00;;;;;;6313010;28;20196;-60
2023/05/28 15:47:43;;;;;;;7.63;5.17;;;26.90;43.40;;;;;;6313487;28;20190;-60
2023/05/28 15:50:44;;;;;;;7.43;5.13;;;;;;;;;;6305284;28;20197;-60
2023/05/28 15:53:45;;;;;;;7.53;4.83;;;;;;;;;;6333386;28;20208;-60
2023/05/28 15:56:48;;;;;;;7.10;4.80;;;;;;;;;;6344554;28;20199;-60
2023/05/28 15:59:50;;;;;;;8.37;5.53;;;;;;;;;;6323048;28;20197;-60
2023/05/28 16:02:52;;;;;;;9.13;5.07;;;26.90;42.60;;;;;;6322579;28;20197;-60
2023/05/28 16:05:54;;;;;;;8.60;5.90;;;;;;;;;;6321865;28;20187;-60
2023/05/28 16:08:55;;;;;;;6.23;5.00;;;;;;;;;;6333737;28;20179;-60
2023/05/28 16:11:57;;;;;;;6.13;4.50;;;;;;;;;;6316364;28;20196;-60
2023/05/28 16:14:58;;;;;;;5.93;4.43;;;;;;;;;;6336416;28;20226;-60
2023/05/28 16:18:02;;;;;;;7.70;4.90;;;;;;;;;;6336989;27;20293;-60
2023/05/28 16:21:03;;;;;;;6.73;4.77;;;;;;;;;;6342353;28;20184;-60
2023/05/28 16:24:04;;;;;;;7.03;5.07;;;;;;;;;;6332558;28;20211;-60
2023/05/28 16:27:06;;;;;;;8.23;4.93;;;;;;;;;;6319498;28;20283;-60
2023/05/28 16:30:07;;;;;;;8.50;5.07;;;;;;;;;;6328459;28;20232;-60
2023/05/28 16:33:09;;;;;;;11.33;5.27;;;;;;;;;;6310639;28;20192;-59
2023/05/28 16:36:21;;;;;;;5.80;4.47;;;;;;;;;;6325353;28;20207;-59
2023/05/28 16:39:23;;;;;;;7.67;5.17;;;;;;;;;;6346684;28;20184;-57
2023/05/28 16:42:24;;;;;;;9.20;5.27;;;;;;;;;;6332002;28;20275;-58
2023/05/28 16:45:25;;;;;;;7.03;4.70;;;;;;;;;;6323517;28;20216;-56
2023/05/28 16:48:27;;;;;;;6.53;4.33;;;26.40;43.20;;;;;;6309921;28;20196;-57
2023/05/28 16:51:32;;;;;;;7.20;5.23;;;24.40;47.00;;;;;;6312154;28;20214;-59
2023/05/28 16:54:33;;;;;;;8.17;4.77;;;24.20;48.00;;;;;;6294547;28;20212;-59
2023/05/28 16:57:34;;;;;;;7.60;4.70;;;24.00;48.80;;;;;;6335576;28;20181;-58
2023/05/28 17:00:35;;;;;;;7.00;4.93;;;23.70;49.10;;;;;;6308319;28;20197;-58
2023/05/28 17:03:36;;;;;;;5.77;4.60;;;23.50;49.40;;;;;;6306722;28;20203;-59
2023/05/28 17:06:36;;;;;;;7.03;4.73;;;23.40;50.10;;;;;;6303724;28;20196;-58
2023/05/28 17:09:37;;;;;;;5.60;4.43;;;23.30;50.40;;;;;;6304270;28;20196;-58
2023/05/28 17:12:38;;;;;;;9.33;5.20;;;23.30;49.10;;;;;;6307502;28;20184;-58
2023/05/28 17:15:39;;;;;;;5.67;4.43;;;23.30;48.00;;;;;;6314397;28;20318;-59
2023/05/28 17:18:40;;;;;;;6.37;4.63;;;23.20;48.10;;;;;;6326473;28;20184;-59
2023/05/28 17:21:43;;;;;;;7.70;5.20;;;23.10;50.00;;;;;;6325205;28;20275;-59